createdAt,value
2022-08-03T00:01:39.057Z,14.13
2022-08-03T00:04:07.171Z,13.10
2022-08-03T00:06:37.116Z,11.70
2022-08-03T00:09:05.507Z,11.80
2022-08-03T00:11:32.308Z,13.10
2022-08-03T00:13:58.906Z,16.85
2022-08-03T00:16:26.440Z,10.70
2022-08-03T00:18:53.254Z,14.23
2022-08-03T00:21:19.937Z,10.88
2022-08-03T00:23:52.429Z,11.98
2022-08-03T00:26:20.923Z,14.20
2022-08-03T00:28:48.095Z,14.85
2022-08-03T00:31:14.722Z,11.68
2022-08-03T00:33:58.936Z,11.90
2022-08-03T00:36:27.657Z,17.17
2022-08-03T00:38:54.584Z,13.55
2022-08-03T00:41:21.481Z,12.57
2022-08-03T00:43:48.227Z,11.48
2022-08-03T00:46:19.231Z,11.73
2022-08-03T00:48:51.504Z,14.80
2022-08-03T00:51:19.239Z,14.25
2022-08-03T00:53:46.184Z,13.43
2022-08-03T00:56:16.986Z,11.85
2022-08-03T00:58:47.108Z,13.10
2022-08-03T01:01:14.424Z,13.90
2022-08-03T01:03:41.244Z,12.93
2022-08-03T01:06:13.409Z,14.32
2022-08-03T01:08:56.970Z,11.07
2022-08-03T01:11:23.636Z,14.50
2022-08-03T01:14:17.906Z,11.63
2022-08-03T01:21:51.011Z,13.25
2022-08-03T01:24:35.174Z,14.43
2022-08-03T01:27:11.939Z,11.68
2022-08-03T01:30:01.282Z,15.50
2022-08-03T01:32:58.629Z,16.10
2022-08-03T01:35:38.622Z,13.20
2022-08-03T01:38:23.893Z,16.25
2022-08-03T01:40:56.253Z,13.90
2022-08-03T01:44:27.043Z,19.77
2022-08-03T01:46:16.908Z,16.65
2022-08-03T01:48:46.384Z,16.05
2022-08-03T01:51:15.632Z,13.82
2022-08-03T01:53:43.357Z,14.73
2022-08-03T01:56:11.330Z,23.80
2022-08-03T01:58:40.781Z,13.55
2022-08-03T02:01:09.807Z,15.48
2022-08-03T02:03:59.744Z,14.85
2022-08-03T02:06:59.778Z,23.73
2022-08-03T02:09:17.919Z,14.63
2022-08-03T02:11:46.795Z,13.88
2022-08-03T02:14:16.216Z,13.93
2022-08-03T02:16:45.532Z,18.27
2022-08-03T02:19:13.178Z,14.77
2022-08-03T02:21:57.233Z,15.45
2022-08-03T02:24:29.064Z,18.80
2022-08-03T02:26:57.136Z,15.73
2022-08-03T02:29:40.286Z,12.25
2022-08-03T02:32:11.572Z,13.63
2022-08-03T02:34:40.102Z,15.18
2022-08-03T02:37:10.364Z,17.52
2022-08-03T02:39:38.851Z,22.58
2022-08-03T02:42:08.656Z,15.05
2022-08-03T02:44:37.676Z,14.75
2022-08-03T02:47:08.168Z,15.85
2022-08-03T02:49:50.571Z,15.40
2022-08-03T02:52:21.509Z,12.77
2022-08-03T02:54:51.276Z,16.25
2022-08-03T02:57:20.181Z,16.75
2022-08-03T02:59:48.006Z,13.80
2022-08-03T03:02:17.084Z,13.57
2022-08-03T03:05:51.764Z,15.50
2022-08-03T03:07:33.928Z,13.27
2022-08-03T03:10:10.712Z,13.57
2022-08-03T03:12:39.126Z,16.75
2022-08-03T03:15:06.712Z,14.18
2022-08-03T03:17:34.388Z,15.02
2022-08-03T03:20:01.690Z,16.60
2022-08-03T03:22:29.529Z,20.13
2022-08-03T03:24:56.525Z,16.75
2022-08-03T03:27:25.608Z,15.45
2022-08-03T03:29:54.360Z,17.98
2022-08-03T03:32:21.109Z,16.35
2022-08-03T03:34:48.207Z,15.15
2022-08-03T03:37:14.864Z,19.48
2022-08-03T03:39:41.526Z,16.75
2022-08-03T03:42:08.251Z,14.77
2022-08-03T03:44:34.979Z,17.42
2022-08-03T03:47:01.735Z,16.60
2022-08-03T03:49:32.292Z,19.58
2022-08-03T03:51:59.056Z,13.02
2022-08-03T03:54:25.673Z,17.52
2022-08-03T03:56:56.151Z,19.85
2022-08-03T03:59:22.832Z,14.75
2022-08-03T04:01:59.171Z,16.13
2022-08-03T04:04:44.882Z,13.20
2022-08-03T04:07:30.218Z,14.35
2022-08-03T04:10:16.524Z,18.85
2022-08-03T04:12:49.939Z,14.25
2022-08-03T04:15:20.872Z,13.65
2022-08-03T04:17:50.320Z,18.27
2022-08-03T04:20:21.431Z,18.95
2022-08-03T04:22:51.355Z,20.02
2022-08-03T04:25:20.930Z,17.55
2022-08-03T04:28:07.970Z,14.40
2022-08-03T04:30:39.233Z,16.23
2022-08-03T04:33:08.316Z,15.75
2022-08-03T04:36:02.362Z,19.60
2022-08-03T04:38:25.653Z,18.02
2022-08-03T04:40:53.841Z,14.80
2022-08-03T04:43:22.610Z,14.10
2022-08-03T04:45:51.280Z,14.25
2022-08-03T04:48:20.129Z,14.10
2022-08-03T04:50:47.961Z,13.65
2022-08-03T04:53:14.646Z,17.02
2022-08-03T04:55:41.280Z,15.55
2022-08-03T04:58:07.889Z,13.57
2022-08-03T05:00:34.635Z,12.88
2022-08-03T05:03:01.298Z,14.70
2022-08-03T05:05:36.224Z,15.77
2022-08-03T05:08:14.614Z,16.95
2022-08-03T05:10:41.346Z,17.60
2022-08-03T05:13:12.084Z,25.08
2022-08-03T05:15:43.241Z,14.52
2022-08-03T05:18:13.982Z,13.18
2022-08-03T05:20:43.342Z,16.55
2022-08-03T05:23:09.948Z,13.63
2022-08-03T05:25:36.599Z,18.52
2022-08-03T05:28:03.480Z,25.42
2022-08-03T05:30:34.037Z,15.85
2022-08-03T05:33:02.518Z,20.48
2022-08-03T05:35:57.567Z,19.75
2022-08-03T05:38:23.659Z,18.60
2022-08-03T05:40:57.191Z,14.43
2022-08-03T05:43:41.379Z,15.80
2022-08-03T05:46:12.887Z,16.10
2022-08-03T05:48:40.281Z,20.42
2022-08-03T05:51:11.437Z,13.55
2022-08-03T05:53:39.820Z,17.05
2022-08-03T05:56:15.080Z,12.68
2022-08-03T05:58:46.975Z,15.00
2022-08-03T06:01:14.561Z,16.38
2022-08-03T06:03:41.259Z,13.18
2022-08-03T06:06:08.137Z,10.05
2022-08-03T06:08:35.390Z,10.75
2022-08-03T06:11:02.132Z,12.38
2022-08-03T06:13:28.906Z,14.73
2022-08-03T06:15:55.519Z,11.32
2022-08-03T06:18:22.243Z,14.15
2022-08-03T06:20:49.447Z,17.38
2022-08-03T06:23:17.647Z,11.93
2022-08-03T06:25:45.312Z,14.93
2022-08-03T06:28:42.635Z,11.50
2022-08-03T06:31:01.332Z,11.60
2022-08-03T06:34:30.808Z,18.42
2022-08-03T06:36:15.220Z,9.27
2022-08-03T06:38:41.882Z,15.45
2022-08-03T06:41:08.533Z,11.05
2022-08-03T06:43:38.004Z,10.73
2022-08-03T06:46:24.427Z,15.02
2022-08-03T06:48:51.288Z,13.30
2022-08-03T06:51:17.879Z,10.95
2022-08-03T06:53:44.496Z,19.05
2022-08-03T06:56:11.217Z,13.15
2022-08-03T06:58:37.826Z,14.43
2022-08-03T07:01:04.526Z,12.77
2022-08-03T07:03:31.209Z,9.40
2022-08-03T07:05:57.868Z,15.25
2022-08-03T07:08:33.522Z,12.82
2022-08-03T07:11:01.562Z,10.82
2022-08-03T07:13:28.272Z,10.57
2022-08-03T07:15:56.380Z,11.77
2022-08-03T07:18:28.867Z,15.38
2022-08-03T07:20:56.911Z,10.65
2022-08-03T07:23:23.550Z,8.68
2022-08-03T07:25:50.943Z,15.27
2022-08-03T07:28:18.170Z,8.68
2022-08-03T07:30:44.850Z,15.32
2022-08-03T07:33:11.723Z,8.35
2022-08-03T07:35:38.620Z,16.10
2022-08-03T07:38:05.227Z,9.57
2022-08-03T07:40:32.628Z,11.10
2022-08-03T07:43:00.502Z,8.98
2022-08-03T07:45:27.157Z,12.02
2022-08-03T07:47:54.335Z,6.97
2022-08-03T07:50:21.635Z,10.25
2022-08-03T07:52:48.517Z,10.18
2022-08-03T07:55:16.269Z,12.25
2022-08-03T07:57:43.035Z,6.47
2022-08-03T08:00:19.729Z,8.75
2022-08-03T08:02:46.726Z,8.18
2022-08-03T08:05:13.325Z,8.55
2022-08-03T08:07:40.392Z,11.00
2022-08-03T08:10:10.089Z,9.60
2022-08-03T08:12:38.216Z,9.18
2022-08-03T08:15:05.937Z,12.55
2022-08-03T08:17:42.058Z,7.38
2022-08-03T08:20:09.787Z,7.32
2022-08-03T08:22:36.416Z,7.97
2022-08-03T08:25:04.488Z,11.70
2022-08-03T08:28:22.475Z,8.93
2022-08-03T08:30:20.299Z,13.10
2022-08-03T08:32:47.709Z,7.72
2022-08-03T08:35:14.839Z,11.38
2022-08-03T08:37:41.753Z,8.70
2022-08-03T08:40:09.427Z,14.70
2022-08-03T08:42:40.302Z,6.25
2022-08-03T08:45:12.073Z,10.27
2022-08-03T08:47:51.075Z,6.15
2022-08-03T08:50:22.126Z,5.15
2022-08-03T08:52:55.259Z,9.60
2022-08-03T08:55:23.700Z,6.38
2022-08-03T08:57:55.541Z,6.28
2022-08-03T09:00:22.223Z,3.55
2022-08-03T09:02:49.167Z,6.25
2022-08-03T09:05:18.748Z,8.02
2022-08-03T09:07:48.373Z,6.57
2022-08-03T09:10:19.859Z,7.47
2022-08-03T09:12:53.563Z,6.40
2022-08-03T09:15:29.343Z,3.47
2022-08-03T09:17:58.077Z,8.15
2022-08-03T09:20:26.589Z,5.90
2022-08-03T09:22:57.533Z,6.10
2022-08-03T09:25:43.117Z,5.80
2022-08-03T09:28:52.677Z,5.97
2022-08-03T09:31:03.642Z,13.00
2022-08-03T09:33:35.918Z,4.93
2022-08-03T09:36:02.985Z,6.43
2022-08-03T09:38:29.586Z,4.57
2022-08-03T09:41:00.340Z,4.45
2022-08-03T09:43:28.098Z,6.10
2022-08-03T09:46:07.514Z,3.60
2022-08-03T09:48:37.451Z,6.55
2022-08-03T09:51:12.957Z,5.57
2022-08-03T09:53:58.854Z,3.30
2022-08-03T09:56:44.025Z,4.68
2022-08-03T09:59:12.679Z,3.28
2022-08-03T10:01:41.844Z,5.85
2022-08-03T10:04:14.607Z,6.22
2022-08-03T10:06:41.294Z,5.07
2022-08-03T10:09:13.240Z,6.65
2022-08-03T10:11:42.228Z,6.45
2022-08-03T10:14:32.544Z,6.05
2022-08-03T10:16:59.173Z,3.22
2022-08-03T10:19:25.895Z,7.35
2022-08-03T10:21:57.889Z,5.93
2022-08-03T10:24:27.381Z,4.80
2022-08-03T10:27:01.661Z,6.82
2022-08-03T10:29:29.651Z,3.95
2022-08-03T10:31:59.578Z,5.63
2022-08-03T10:34:29.180Z,7.13
2022-08-03T10:37:00.158Z,6.90
2022-08-03T10:39:30.663Z,10.88
2022-08-03T10:42:02.678Z,5.18
2022-08-03T10:44:41.409Z,6.50
2022-08-03T10:47:10.318Z,4.18
2022-08-03T10:49:37.703Z,4.68
2022-08-03T10:52:12.772Z,5.97
2022-08-03T10:55:03.270Z,3.88
2022-08-03T10:57:47.435Z,6.75
2022-08-03T11:00:25.056Z,3.50
2022-08-03T11:03:06.987Z,6.22
2022-08-03T11:05:36.737Z,5.70
2022-08-03T11:08:28.084Z,8.02
2022-08-03T11:11:23.615Z,5.63
2022-08-03T11:14:11.269Z,4.63
2022-08-03T11:16:41.132Z,3.25
2022-08-03T11:19:10.792Z,3.55
2022-08-03T11:21:50.630Z,5.30
2022-08-03T11:24:43.766Z,8.52
2022-08-03T11:27:18.804Z,6.95
2022-08-03T11:30:04.385Z,3.97
2022-08-03T11:32:40.470Z,11.32
2022-08-03T11:35:14.661Z,5.63
2022-08-03T11:38:03.345Z,5.93
2022-08-03T11:40:44.734Z,5.50
2022-08-03T11:43:32.015Z,5.28
2022-08-03T11:46:28.092Z,4.03
2022-08-03T11:49:10.005Z,4.35
2022-08-03T11:51:38.841Z,5.05
2022-08-03T11:54:06.931Z,3.30
2022-08-03T11:56:48.118Z,5.15
2022-08-03T11:59:20.140Z,4.80
2022-08-03T12:01:48.153Z,3.55
2022-08-03T12:04:16.367Z,3.58
2022-08-03T12:06:59.259Z,4.03
2022-08-03T12:09:25.879Z,5.78
2022-08-03T12:12:00.137Z,4.53
2022-08-03T12:14:48.823Z,3.83
2022-08-03T12:17:15.213Z,3.90
2022-08-03T12:19:45.462Z,3.85
2022-08-03T12:22:12.117Z,6.65
2022-08-03T12:24:43.388Z,3.67
2022-08-03T12:27:10.161Z,4.93
2022-08-03T12:29:36.976Z,4.57
2022-08-03T12:32:03.882Z,2.90
2022-08-03T12:34:47.626Z,2.88
2022-08-03T12:37:29.002Z,9.23
2022-08-03T12:40:09.638Z,4.68
2022-08-03T12:42:39.423Z,2.85
2022-08-03T12:45:25.881Z,3.03
2022-08-03T12:47:57.629Z,2.75
2022-08-03T12:50:26.898Z,6.43
2022-08-03T12:52:53.853Z,3.67
2022-08-03T12:55:22.309Z,1.80
2022-08-03T12:57:49.396Z,5.13
2022-08-03T13:00:28.996Z,3.47
2022-08-03T13:03:39.664Z,4.22
2022-08-03T13:05:55.866Z,4.55
2022-08-03T13:08:25.213Z,5.15
2022-08-03T13:10:52.575Z,4.15
2022-08-03T13:13:20.866Z,4.63
2022-08-03T13:15:47.751Z,2.05
2022-08-03T13:18:17.249Z,6.38
2022-08-03T13:20:44.366Z,6.07
2022-08-03T13:23:15.547Z,3.20
2022-08-03T13:25:55.540Z,2.53
2022-08-03T13:28:23.173Z,2.22
2022-08-03T13:30:49.827Z,5.50
2022-08-03T13:33:16.556Z,3.20
2022-08-03T13:35:43.148Z,2.42
2022-08-03T13:38:09.770Z,3.50
2022-08-03T13:40:42.197Z,3.42
2022-08-03T13:43:09.555Z,3.55
2022-08-03T13:45:36.215Z,7.70
2022-08-03T13:48:02.831Z,2.83
2022-08-03T13:50:30.249Z,3.40
2022-08-03T13:52:57.978Z,2.70
2022-08-03T13:55:24.729Z,3.38
2022-08-03T13:58:02.920Z,3.78
2022-08-03T14:00:34.012Z,2.35
2022-08-03T14:03:16.599Z,2.25
2022-08-03T14:05:43.879Z,3.75
2022-08-03T14:08:11.507Z,5.72
2022-08-03T14:10:44.026Z,4.43
2022-08-03T14:13:17.849Z,2.17
2022-08-03T14:15:50.320Z,5.70
2022-08-03T14:18:28.983Z,2.28
2022-08-03T14:21:06.714Z,8.48
2022-08-03T14:23:34.819Z,2.95
2022-08-03T14:26:01.559Z,3.17
2022-08-03T14:28:28.724Z,3.05
2022-08-03T14:30:56.298Z,5.47
2022-08-03T14:33:23.830Z,3.20
2022-08-03T14:35:51.627Z,2.75
2022-08-03T14:38:18.671Z,5.45
2022-08-03T14:40:45.465Z,2.42
2022-08-03T14:43:12.618Z,4.32
2022-08-03T14:45:42.742Z,3.17
2022-08-03T14:50:33.982Z,2.08
2022-08-03T14:50:56.890Z,3.60
2022-08-03T14:53:24.190Z,2.30
2022-08-03T14:55:51.937Z,4.57
2022-08-03T14:58:20.983Z,4.03
2022-08-03T15:00:49.016Z,3.45
2022-08-03T15:03:17.121Z,2.47
2022-08-03T15:05:44.514Z,3.53
2022-08-03T15:08:11.506Z,5.60
2022-08-03T15:10:44.341Z,4.53
2022-08-03T15:13:18.474Z,2.55
2022-08-03T15:15:45.301Z,3.13
2022-08-03T15:18:11.947Z,2.97
2022-08-03T15:20:44.827Z,1.85
2022-08-03T15:23:14.106Z,4.80
2022-08-03T15:26:32.049Z,4.32
2022-08-03T15:28:27.676Z,4.35
2022-08-03T15:30:54.689Z,2.50
2022-08-03T15:33:21.868Z,7.50
2022-08-03T15:35:49.793Z,5.85
2022-08-03T15:38:16.552Z,2.60
2022-08-03T15:40:43.373Z,3.03
2022-08-03T15:43:09.957Z,2.95
2022-08-03T15:45:37.397Z,2.63
2022-08-03T15:48:06.105Z,2.33
2022-08-03T15:50:33.132Z,6.25
2022-08-03T15:52:59.863Z,1.80
2022-08-03T15:55:26.726Z,6.40
2022-08-03T15:59:09.787Z,2.50
2022-08-03T16:00:42.411Z,2.65
2022-08-03T16:03:09.803Z,1.73
2022-08-03T16:05:36.846Z,4.60
2022-08-03T16:08:06.207Z,2.25
2022-08-03T16:10:34.580Z,2.60
2022-08-03T16:13:01.251Z,2.15
2022-08-03T16:15:28.075Z,5.43
2022-08-03T16:17:54.885Z,3.40
2022-08-03T16:20:31.403Z,3.05
2022-08-03T16:23:08.446Z,3.92
2022-08-03T16:25:38.639Z,2.17
2022-08-03T16:28:08.122Z,2.35
2022-08-03T16:30:41.043Z,3.35
2022-08-03T16:33:07.747Z,5.43
2022-08-03T16:35:34.535Z,8.15
2022-08-03T16:38:01.185Z,4.70
2022-08-03T16:40:28.126Z,3.67
2022-08-03T16:42:55.012Z,2.85
2022-08-03T16:45:21.895Z,2.95
2022-08-03T16:47:49.074Z,2.80
2022-08-03T16:50:31.871Z,3.22
2022-08-03T16:52:59.553Z,2.20
2022-08-03T16:55:49.086Z,2.63
2022-08-03T16:58:15.166Z,6.30
2022-08-03T17:00:43.064Z,6.10
2022-08-03T17:03:12.402Z,3.28
2022-08-03T17:05:47.749Z,3.10
2022-08-03T17:08:15.702Z,3.78
2022-08-03T17:10:44.522Z,4.18
2022-08-03T17:13:20.782Z,2.85
2022-08-03T17:16:00.859Z,2.53
2022-08-03T17:18:34.898Z,4.75
2022-08-03T17:21:06.063Z,5.82
2022-08-03T17:23:40.537Z,2.85
2022-08-03T17:26:21.270Z,4.65
2022-08-03T17:28:58.009Z,5.15
2022-08-03T17:31:31.259Z,7.50
2022-08-03T17:34:01.739Z,2.95
2022-08-03T17:37:00.911Z,5.97
2022-08-03T17:39:23.538Z,3.28
2022-08-03T17:42:00.855Z,2.33
2022-08-03T17:44:35.271Z,3.22
2022-08-03T17:47:08.191Z,2.88
2022-08-03T17:49:40.001Z,3.83
2022-08-03T17:52:30.890Z,6.05
2022-08-03T17:55:57.093Z,5.65
2022-08-03T17:58:11.228Z,5.07
2022-08-03T18:01:01.132Z,5.38
2022-08-03T18:03:30.762Z,6.38
2022-08-03T18:06:27.918Z,4.47
2022-08-03T18:09:04.694Z,5.70
2022-08-03T18:11:35.400Z,6.03
2022-08-03T18:14:24.317Z,2.80
2022-08-03T18:17:01.627Z,2.88
2022-08-03T18:20:02.611Z,4.05
2022-08-03T18:22:20.360Z,3.85
2022-08-03T18:24:50.026Z,6.30
2022-08-03T18:27:19.426Z,3.72
2022-08-03T18:29:47.100Z,5.70
2022-08-03T18:32:16.909Z,5.40
2022-08-03T18:34:53.968Z,3.75
2022-08-03T18:37:25.185Z,5.28
2022-08-03T18:39:55.083Z,3.47
2022-08-03T18:42:25.806Z,3.85
2022-08-03T18:44:56.531Z,4.43
2022-08-03T18:47:50.407Z,4.93
2022-08-03T18:50:46.509Z,14.93
2022-08-03T18:53:20.273Z,5.03
2022-08-03T18:56:01.404Z,6.03
2022-08-03T18:58:40.762Z,5.15
2022-08-03T19:01:57.996Z,4.55
2022-08-03T19:04:09.553Z,5.80
2022-08-03T19:06:41.996Z,4.63
2022-08-03T19:09:22.132Z,3.78
2022-08-03T19:12:13.955Z,4.43
2022-08-03T19:14:47.399Z,4.75
2022-08-03T19:17:21.127Z,4.97
2022-08-03T19:19:51.926Z,19.90
2022-08-03T19:22:21.282Z,6.30
2022-08-03T19:24:51.706Z,3.67
2022-08-03T19:27:26.809Z,4.22
2022-08-03T19:30:00.612Z,5.70
2022-08-03T19:32:30.113Z,7.72
2022-08-03T19:34:59.606Z,13.93
2022-08-03T19:37:38.355Z,8.18
2022-08-03T19:40:10.841Z,7.10
2022-08-03T19:42:44.639Z,7.53
2022-08-03T19:45:14.750Z,4.00
2022-08-03T19:48:12.301Z,7.60
2022-08-03T19:50:43.140Z,5.93
2022-08-03T19:53:12.697Z,8.43
2022-08-03T19:55:47.562Z,8.93
2022-08-03T19:58:17.767Z,8.90
2022-08-03T20:00:55.651Z,13.55
2022-08-03T20:03:23.426Z,7.13
2022-08-03T20:05:52.387Z,10.25
2022-08-03T20:08:21.952Z,6.00
2022-08-03T20:10:49.486Z,6.55
2022-08-03T20:13:19.462Z,5.47
2022-08-03T20:15:46.298Z,6.85
2022-08-03T20:18:16.751Z,11.68
2022-08-03T20:20:48.043Z,8.75
2022-08-03T20:23:18.308Z,7.63
2022-08-03T20:25:57.448Z,6.00
2022-08-03T20:28:31.375Z,9.38
2022-08-03T20:33:48.770Z,13.50
2022-08-03T20:36:17.830Z,6.68
2022-08-03T20:38:46.996Z,6.80
2022-08-03T20:41:15.524Z,5.57
2022-08-03T20:43:42.281Z,10.43
2022-08-03T20:46:31.756Z,8.07
2022-08-03T20:48:58.726Z,6.18
2022-08-03T20:51:52.715Z,5.95
2022-08-03T20:54:22.983Z,11.07
2022-08-03T20:56:57.997Z,7.07
2022-08-03T20:59:34.809Z,10.43
2022-08-03T21:02:13.740Z,6.80
2022-08-03T21:04:47.466Z,6.88
2022-08-03T21:07:19.320Z,10.82
2022-08-03T21:09:56.039Z,8.27
2022-08-03T21:12:35.913Z,10.73
2022-08-03T21:13:12.436Z,5.72
2022-08-03T21:15:06.465Z,10.27
2022-08-03T21:17:40.881Z,8.68
2022-08-03T21:20:10.245Z,9.55
2022-08-03T21:22:45.234Z,8.00
2022-08-03T21:25:15.502Z,9.18
2022-08-03T21:27:42.263Z,7.03
2022-08-03T21:30:11.070Z,9.05
2022-08-03T21:32:40.334Z,6.90
2022-08-03T21:35:10.720Z,13.13
2022-08-03T21:37:39.202Z,6.65
2022-08-03T21:40:06.935Z,7.50
2022-08-03T21:42:33.767Z,8.02
2022-08-03T21:45:00.448Z,9.10
2022-08-03T21:47:27.219Z,6.32
2022-08-03T21:50:07.082Z,7.05
2022-08-03T21:52:41.286Z,9.48
2022-08-03T21:55:08.830Z,12.52
2022-08-03T21:57:51.647Z,12.82
2022-08-03T22:00:20.585Z,7.93
2022-08-03T22:02:58.366Z,8.25
2022-08-03T22:05:28.983Z,12.02
2022-08-03T22:08:10.861Z,6.88
2022-08-03T22:10:37.982Z,9.25
2022-08-03T22:13:04.653Z,7.57
2022-08-03T22:15:32.439Z,10.10
2022-08-03T22:18:03.390Z,9.10
2022-08-03T22:20:30.303Z,6.97
2022-08-03T22:23:00.424Z,8.75
2022-08-03T22:25:30.693Z,7.38
2022-08-03T22:28:00.551Z,10.70
2022-08-03T22:30:27.486Z,6.45
2022-08-03T22:32:56.373Z,9.48
2022-08-03T22:35:25.237Z,12.45
2022-08-03T22:37:55.593Z,10.07
2022-08-03T22:40:22.458Z,7.35
2022-08-03T22:42:50.509Z,9.50
2022-08-03T22:45:45.250Z,9.20
2022-08-03T22:48:07.862Z,9.80
2022-08-03T22:50:35.496Z,9.38
2022-08-03T22:53:02.897Z,7.43
2022-08-03T22:55:29.697Z,8.65
2022-08-03T22:57:56.612Z,15.48
2022-08-03T23:00:24.595Z,8.35
2022-08-03T23:02:53.996Z,11.77
2022-08-03T23:06:01.087Z,11.02
2022-08-03T23:08:17.776Z,11.20
2022-08-03T23:10:47.505Z,13.82
2022-08-03T23:13:18.252Z,8.18
2022-08-03T23:15:56.727Z,14.35
2022-08-03T23:18:25.395Z,11.85
2022-08-03T23:20:53.531Z,14.23
2022-08-03T23:23:20.805Z,20.55
2022-08-03T23:25:51.056Z,11.38
2022-08-03T23:28:18.597Z,16.13
2022-08-03T23:30:45.781Z,10.60
2022-08-03T23:33:16.467Z,13.52
2022-08-03T23:36:29.740Z,12.05
2022-08-03T23:38:47.533Z,12.15
2022-08-03T23:41:17.592Z,9.93
2022-08-03T23:43:52.163Z,18.02
2022-08-03T23:46:25.907Z,13.75
2022-08-03T23:48:53.990Z,12.43
2022-08-03T23:51:34.293Z,19.13
2022-08-03T23:54:11.213Z,14.70
2022-08-03T23:56:44.393Z,13.32
2022-08-03T23:59:29.864Z,9.68
